Time;durP1;ratioP1;P1;durP2;ratioP2;P2;SDS_P1;SDS_P2;PMS_P1;PMS_P2;Temp;Humidity;BMP_temperature;BMP_pressure;BME280_temperature;BME280_humidity;BME280_pressure;Samples;Min_cycle;Max_cycle;Signal;HPM_P1;HPM_P2
2020/12/13 00:00:46;;;;;;;36.90;19.77;;;2.30;93.00;;;;;;5003881;28;20227;-81
2020/12/13 00:03:14;;;;;;;46.67;22.27;;;2.30;93.00;;;;;;5003444;28;20200;-81
2020/12/13 00:05:41;;;;;;;41.17;20.40;;;2.30;93.10;;;;;;4987851;28;20560;-80
2020/12/13 00:08:09;;;;;;;46.97;21.60;;;2.30;93.10;;;;;;4981865;28;20216;-82
2020/12/13 00:10:37;;;;;;;42.27;21.17;;;2.30;93.10;;;;;;4979242;28;20268;-81
2020/12/13 00:13:05;;;;;;;42.40;21.53;;;2.30;93.00;;;;;;4979390;28;20204;-82
2020/12/13 00:15:32;;;;;;;41.93;20.30;;;2.30;93.00;;;;;;4979722;28;20274;-82
2020/12/13 00:18:00;;;;;;;47.03;21.50;;;2.30;93.00;;;;;;4980948;28;20288;-82
2020/12/13 00:20:28;;;;;;;43.83;21.83;;;2.30;93.00;;;;;;4980798;28;20485;-82
2020/12/13 00:22:56;;;;;;;51.73;22.97;;;2.30;93.00;;;;;;4986275;28;20211;-80
2020/12/13 00:25:23;;;;;;;45.93;21.70;;;2.40;93.00;;;;;;4979973;28;20215;-83
2020/12/13 00:27:52;;;;;;;47.30;21.60;;;2.40;93.10;;;;;;4990472;28;20204;-81
2020/12/13 00:30:20;;;;;;;44.63;22.10;;;2.30;93.10;;;;;;4987467;28;20394;-80
2020/12/13 00:32:48;;;;;;;49.30;22.67;;;2.40;93.10;;;;;;4993555;28;20276;-82
2020/12/13 00:35:16;;;;;;;52.67;22.60;;;2.30;93.00;;;;;;4989545;28;20587;-82
2020/12/13 00:37:43;;;;;;;48.83;22.63;;;2.40;93.10;;;;;;5004337;28;20214;-83
2020/12/13 00:40:11;;;;;;;48.90;24.00;;;2.30;93.10;;;;;;4992816;28;20231;-82
2020/12/13 00:42:38;;;;;;;48.33;22.07;;;2.30;93.10;;;;;;4999514;28;20638;-79
2020/12/13 00:45:07;;;;;;;49.50;22.43;;;2.30;93.10;;;;;;4992787;28;20439;-80
2020/12/13 00:47:37;;;;;;;49.83;22.67;;;2.30;93.10;;;;;;4985559;28;20451;-84
2020/12/13 00:50:05;;;;;;;49.63;23.20;;;2.30;93.10;;;;;;4993496;28;20200;-81
2020/12/13 00:52:33;;;;;;;51.80;25.10;;;2.40;93.10;;;;;;4976271;28;20247;-81
2020/12/13 00:55:00;;;;;;;52.27;24.37;;;2.30;93.20;;;;;;4980503;28;20809;-82
2020/12/13 00:57:28;;;;;;;58.87;25.23;;;2.30;93.20;;;;;;4993777;28;20219;-82
2020/12/13 00:59:56;;;;;;;52.70;23.83;;;2.40;93.20;;;;;;5004637;28;20295;-81
2020/12/13 01:02:24;;;;;;;44.93;22.33;;;2.30;93.20;;;;;;5001150;28;20216;-81
2020/12/13 01:04:52;;;;;;;47.23;23.47;;;2.30;93.20;;;;;;4980710;28;20934;-81
2020/12/13 01:07:22;;;;;;;48.10;21.83;;;2.30;93.20;;;;;;4980929;28;20212;-82
2020/12/13 01:09:49;;;;;;;51.53;22.73;;;2.30;93.20;;;;;;4992804;28;20184;-82
2020/12/13 01:12:17;;;;;;;50.27;23.10;;;2.40;93.20;;;;;;4987948;28;20208;-81
2020/12/13 01:14:45;;;;;;;46.87;21.77;;;2.30;93.20;;;;;;4981956;28;20204;-80
2020/12/13 01:17:14;;;;;;;51.33;23.83;;;2.40;93.20;;;;;;4982329;28;20212;-81
2020/12/13 01:19:47;;;;;;;53.73;23.77;;;2.30;93.20;;;;;;4975403;28;20492;-81
2020/12/13 01:22:15;;;;;;;48.30;23.07;;;2.30;93.20;;;;;;4981046;28;20663;-82
2020/12/13 01:24:42;;;;;;;55.47;24.40;;;2.30;93.20;;;;;;4975324;28;20217;-80
2020/12/13 01:27:10;;;;;;;52.43;22.90;;;2.30;93.20;;;;;;4977087;28;20650;-81
2020/12/13 01:29:38;;;;;;;56.73;26.60;;;2.30;93.20;;;;;;4978348;28;20521;-80
2020/12/13 01:32:06;;;;;;;56.57;24.30;;;2.30;93.20;;;;;;4975883;28;20702;-82
2020/12/13 01:34:33;;;;;;;56.87;25.00;;;2.30;93.30;;;;;;4978268;28;20254;-81
2020/12/13 01:37:02;;;;;;;52.90;23.63;;;2.30;93.30;;;;;;4997017;28;20206;-82
2020/12/13 01:39:29;;;;;;;54.53;24.33;;;2.30;93.30;;;;;;4980763;28;20234;-82
2020/12/13 01:41:58;;;;;;;56.93;24.83;;;2.30;93.20;;;;;;4984575;28;20224;-80
2020/12/13 01:44:31;;;;;;;58.97;25.30;;;2.30;93.30;;;;;;5006370;28;20211;-80
2020/12/13 01:46:59;;;;;;;56.47;25.40;;;2.30;93.30;;;;;;4994209;28;20208;-82
2020/12/13 01:49:31;;;;;;;52.43;22.93;;;2.30;93.30;;;;;;4985819;28;20214;-83
2020/12/13 01:52:41;;;;;;;55.93;24.33;;;2.30;93.30;;;;;;4980854;28;20196;-80
2020/12/13 01:55:03;;;;;;;55.27;23.33;;;2.30;93.30;;;;;;4983751;28;20221;-82
2020/12/13 01:57:35;;;;;;;51.93;23.87;;;2.30;93.30;;;;;;4976912;28;20585;-82
2020/12/13 02:00:07;;;;;;;53.97;23.90;;;2.30;93.30;;;;;;4979708;28;20211;-81
2020/12/13 02:02:40;;;;;;;52.97;23.90;;;2.30;93.30;;;;;;4976058;28;20250;-82
2020/12/13 02:05:10;;;;;;;50.93;23.23;;;2.30;93.30;;;;;;4981528;28;20196;-82
2020/12/13 02:07:39;;;;;;;51.53;24.53;;;2.30;93.30;;;;;;4979103;28;20230;-81
2020/12/13 02:10:09;;;;;;;59.27;25.47;;;2.30;93.30;;;;;;4983120;28;20292;-81
2020/12/13 02:12:37;;;;;;;49.63;23.63;;;2.30;93.40;;;;;;4983461;28;20188;-80
2020/12/13 02:15:07;;;;;;;51.70;23.43;;;2.30;93.30;;;;;;4988430;28;20690;-82
2020/12/13 02:17:36;;;;;;;52.47;23.37;;;2.30;93.30;;;;;;4988819;28;20228;-80
2020/12/13 02:20:09;;;;;;;50.23;23.53;;;2.20;93.30;;;;;;4988411;28;20677;-81
2020/12/13 02:22:41;;;;;;;48.17;23.33;;;2.30;93.30;;;;;;4989132;28;20227;-80
2020/12/13 02:25:10;;;;;;;45.03;22.33;;;2.30;93.30;;;;;;5005482;28;20221;-82
2020/12/13 02:27:39;;;;;;;45.80;23.07;;;2.30;93.30;;;;;;5003966;28;20215;-81
2020/12/13 02:30:07;;;;;;;52.37;23.10;;;2.30;93.30;;;;;;5002443;28;20578;-80
2020/12/13 02:32:36;;;;;;;55.87;23.00;;;2.30;93.30;;;;;;4989301;28;20214;-81
2020/12/13 02:35:05;;;;;;;49.70;23.33;;;2.30;93.30;;;;;;4982858;28;20227;-81
2020/12/13 02:37:32;;;;;;;49.73;23.37;;;2.30;93.30;;;;;;4993034;28;20210;-83
2020/12/13 02:40:02;;;;;;;52.07;23.93;;;2.30;93.30;;;;;;5000059;28;20599;-81
2020/12/13 02:42:29;;;;;;;52.23;22.90;;;2.20;93.30;;;;;;4987339;28;20417;-82
2020/12/13 02:44:57;;;;;;;48.70;22.83;;;2.20;93.30;;;;;;4988417;28;20709;-81
2020/12/13 02:47:24;;;;;;;43.03;20.77;;;2.30;93.30;;;;;;5009693;28;20203;-82
2020/12/13 02:49:52;;;;;;;48.13;21.90;;;2.30;93.30;;;;;;4985425;28;20239;-83
2020/12/13 02:52:20;;;;;;;42.00;20.97;;;2.30;93.30;;;;;;5002486;28;20211;-81
2020/12/13 02:54:48;;;;;;;44.60;20.83;;;2.30;93.30;;;;;;4990194;28;20518;-82
2020/12/13 02:57:16;;;;;;;40.33;20.60;;;2.20;93.30;;;;;;4989616;28;20200;-82
2020/12/13 02:59:43;;;;;;;39.70;20.57;;;2.30;93.30;;;;;;4999894;28;20475;-82
2020/12/13 03:02:11;;;;;;;41.33;20.83;;;2.30;93.30;;;;;;4985660;28;20238;-81
2020/12/13 03:04:38;;;;;;;38.83;20.33;;;2.30;93.30;;;;;;4985889;28;20564;-81
2020/12/13 03:07:08;;;;;;;39.87;20.77;;;2.30;93.30;;;;;;4980163;28;20219;-82
2020/12/13 03:09:37;;;;;;;38.00;20.87;;;2.30;93.30;;;;;;4983705;28;20671;-81
2020/12/13 03:12:05;;;;;;;43.63;20.57;;;2.30;93.30;;;;;;4999884;28;20215;-81
2020/12/13 03:14:33;;;;;;;39.93;19.60;;;2.30;93.30;;;;;;4988047;28;20204;-81
2020/12/13 03:17:01;;;;;;;39.87;19.30;;;2.30;93.30;;;;;;4975105;28;20658;-81
2020/12/13 03:19:28;;;;;;;39.87;20.73;;;2.10;93.30;;;;;;4985247;28;20226;-83
2020/12/13 03:21:56;;;;;;;39.97;18.93;;;2.20;93.30;;;;;;4980050;28;20259;-81
2020/12/13 03:24:24;;;;;;;38.20;19.13;;;2.20;93.30;;;;;;4982958;28;20795;-81
2020/12/13 03:26:52;;;;;;;42.83;20.07;;;2.30;93.30;;;;;;4977786;28;20757;-81
2020/12/13 03:29:19;;;;;;;41.77;20.13;;;2.20;93.30;;;;;;4980489;28;20212;-81
2020/12/13 03:31:48;;;;;;;39.03;20.70;;;2.20;93.30;;;;;;4978889;28;20200;-82
2020/12/13 03:34:15;;;;;;;40.53;20.93;;;2.20;93.30;;;;;;4979050;28;20204;-81
2020/12/13 03:36:43;;;;;;;41.00;21.00;;;2.20;93.30;;;;;;4981183;28;20659;-81
2020/12/13 03:39:11;;;;;;;39.20;20.20;;;2.20;93.30;;;;;;5001445;28;20310;-82
2020/12/13 03:41:38;;;;;;;36.20;19.70;;;2.20;93.30;;;;;;4983085;28;20233;-80
2020/12/13 03:44:05;;;;;;;41.87;20.30;;;2.20;93.30;;;;;;4992137;28;20242;-81
2020/12/13 03:46:34;;;;;;;39.90;20.20;;;2.20;93.30;;;;;;4984488;28;20223;-81
2020/12/13 03:49:02;;;;;;;46.37;21.17;;;2.20;93.30;;;;;;4980888;28;20844;-82
2020/12/13 03:51:30;;;;;;;37.87;20.50;;;2.20;93.30;;;;;;5002255;28;20201;-83
2020/12/13 03:53:58;;;;;;;42.07;21.37;;;2.20;93.30;;;;;;5004568;28;20733;-81
2020/12/13 03:56:26;;;;;;;44.83;20.70;;;2.30;93.30;;;;;;5001050;28;20188;-82
2020/12/13 03:58:53;;;;;;;43.03;20.20;;;2.20;93.30;;;;;;4984675;28;20204;-81
2020/12/13 04:01:21;;;;;;;43.20;21.20;;;2.20;93.30;;;;;;4992781;28;20702;-81
2020/12/13 04:03:48;;;;;;;40.83;21.47;;;2.20;93.30;;;;;;4998477;28;20385;-82
2020/12/13 04:06:17;;;;;;;44.07;20.70;;;2.20;93.30;;;;;;4982231;28;20407;-82
2020/12/13 04:08:44;;;;;;;37.83;19.97;;;2.20;93.30;;;;;;4976081;28;20208;-82
2020/12/13 04:11:12;;;;;;;41.07;19.63;;;2.30;93.30;;;;;;4980791;28;20204;-81
2020/12/13 04:13:39;;;;;;;42.27;20.53;;;2.20;93.30;;;;;;4980084;28;20212;-80
2020/12/13 04:16:07;;;;;;;41.37;20.17;;;2.20;93.30;;;;;;4981606;28;20409;-81
2020/12/13 04:18:34;;;;;;;42.77;20.83;;;2.20;93.30;;;;;;4980221;28;20455;-82
2020/12/13 04:21:02;;;;;;;38.20;19.90;;;2.20;93.30;;;;;;4982470;28;20367;-79
2020/12/13 04:23:30;;;;;;;42.40;19.13;;;2.20;93.30;;;;;;4977541;28;20697;-82
2020/12/13 04:25:58;;;;;;;37.10;19.03;;;2.20;93.30;;;;;;4978511;28;20248;-82
2020/12/13 04:28:26;;;;;;;38.37;18.10;;;2.20;93.30;;;;;;4980163;28;20284;-81
2020/12/13 04:30:53;;;;;;;34.47;19.10;;;2.20;93.30;;;;;;4975548;28;20208;-82
2020/12/13 04:33:21;;;;;;;39.57;19.30;;;2.20;93.30;;;;;;4981146;28;20206;-81
2020/12/13 04:35:49;;;;;;;35.27;19.47;;;2.30;93.30;;;;;;4977597;28;20244;-81
2020/12/13 04:38:16;;;;;;;39.50;18.73;;;2.20;93.20;;;;;;4985851;28;20573;-82
2020/12/13 04:40:45;;;;;;;37.57;18.80;;;2.20;93.20;;;;;;5011083;28;20209;-81
2020/12/13 04:43:12;;;;;;;37.37;19.57;;;2.20;93.20;;;;;;5018492;28;20215;-81
2020/12/13 04:45:40;;;;;;;32.60;18.13;;;2.20;93.20;;;;;;5008854;28;20216;-83
2020/12/13 04:48:10;;;;;;;34.53;17.87;;;2.20;93.30;;;;;;5009594;28;20185;-81
2020/12/13 04:50:39;;;;;;;35.30;18.17;;;2.20;93.20;;;;;;4989415;28;20188;-82
2020/12/13 04:53:08;;;;;;;34.90;17.83;;;2.20;93.30;;;;;;4985536;28;20201;-81
2020/12/13 04:55:43;;;;;;;31.20;16.40;;;2.20;93.20;;;;;;5003668;28;20193;-83
2020/12/13 04:58:13;;;;;;;34.23;16.30;;;2.30;93.30;;;;;;5008546;28;20207;-81
2020/12/13 05:00:43;;;;;;;28.07;14.43;;;2.20;93.20;;;;;;5015376;28;20749;-83
2020/12/13 05:03:13;;;;;;;28.97;15.53;;;2.20;93.30;;;;;;4985514;28;20227;-82
2020/12/13 05:05:40;;;;;;;30.30;15.97;;;2.20;93.30;;;;;;4983882;28;20584;-82
2020/12/13 05:08:08;;;;;;;34.07;16.93;;;2.20;93.30;;;;;;5000091;28;20215;-82
2020/12/13 05:10:38;;;;;;;35.00;16.33;;;2.20;93.30;;;;;;4999799;28;20200;-84
2020/12/13 05:13:06;;;;;;;38.73;17.73;;;2.20;93.30;;;;;;5005998;28;20203;-82
2020/12/13 05:15:36;;;;;;;35.17;18.00;;;2.20;93.30;;;;;;4996744;28;20307;-82
2020/12/13 05:18:04;;;;;;;34.77;18.53;;;2.20;93.30;;;;;;4994849;28;20454;-82
2020/12/13 05:20:33;;;;;;;37.17;18.27;;;2.20;93.30;;;;;;5006953;28;20204;-81
2020/12/13 05:23:01;;;;;;;33.73;18.67;;;2.20;93.30;;;;;;5003769;28;20311;-82
2020/12/13 05:25:30;;;;;;;36.30;18.17;;;2.30;93.30;;;;;;4992167;28;20201;-80
2020/12/13 05:28:02;;;;;;;38.53;19.03;;;2.30;93.30;;;;;;5003326;28;20337;-81
2020/12/13 05:30:33;;;;;;;40.93;19.13;;;2.30;93.30;;;;;;4982214;28;20221;-81
2020/12/13 05:33:05;;;;;;;39.47;19.07;;;2.30;93.30;;;;;;4977656;28;20282;-81
2020/12/13 05:35:33;;;;;;;37.40;18.63;;;2.30;93.30;;;;;;4992364;28;20224;-82
2020/12/13 05:38:10;;;;;;;37.97;18.47;;;2.30;93.30;;;;;;4989984;28;20203;-81
2020/12/13 05:40:37;;;;;;;36.87;18.00;;;2.30;93.30;;;;;;4986094;28;20191;-81
2020/12/13 05:43:08;;;;;;;36.73;18.40;;;2.30;93.30;;;;;;4990489;28;20227;-81
2020/12/13 05:46:15;;;;;;;35.10;18.03;;;2.30;93.30;;;;;;4985042;28;20235;-81
2020/12/13 05:49:05;;;;;;;37.63;19.27;;;2.30;93.30;;;;;;4981116;28;20353;-82
2020/12/13 05:51:39;;;;;;;38.47;19.17;;;2.30;93.30;;;;;;4976061;28;20200;-81
2020/12/13 05:54:18;;;;;;;36.30;19.73;;;2.30;93.30;;;;;;4978355;28;20234;-82
2020/12/13 05:56:51;;;;;;;45.37;21.07;;;2.30;93.30;;;;;;4974516;28;20442;-81
2020/12/13 05:59:19;;;;;;;42.40;21.17;;;2.30;93.30;;;;;;4986797;28;20207;-81
2020/12/13 06:01:48;;;;;;;39.43;20.93;;;2.30;93.30;;;;;;4994970;28;20224;-83
2020/12/13 06:04:23;;;;;;;42.13;20.60;;;2.30;93.30;;;;;;4983835;28;20208;-83
2020/12/13 06:06:55;;;;;;;47.23;23.60;;;2.30;93.30;;;;;;4978370;28;20199;-82
2020/12/13 06:09:32;;;;;;;50.03;23.60;;;2.30;93.30;;;;;;4981363;28;20200;-80
2020/12/13 06:12:02;;;;;;;49.97;23.73;;;2.30;93.30;;;;;;4974874;28;20196;-80
2020/12/13 06:14:29;;;;;;;50.53;24.33;;;2.30;93.30;;;;;;4982742;28;20311;-81
2020/12/13 06:16:58;;;;;;;51.50;24.40;;;2.20;93.30;;;;;;4984075;28;20677;-80
2020/12/13 06:19:29;;;;;;;52.97;23.53;;;2.30;93.30;;;;;;4980685;28;20208;-81
2020/12/13 06:21:58;;;;;;;54.57;25.30;;;2.30;93.30;;;;;;4978225;28;20747;-82
2020/12/13 06:24:26;;;;;;;53.87;25.77;;;2.20;93.30;;;;;;4992144;28;20203;-82
2020/12/13 06:26:55;;;;;;;50.63;24.10;;;2.20;93.30;;;;;;4984660;28;20307;-81
2020/12/13 06:29:24;;;;;;;56.80;24.73;;;2.20;93.30;;;;;;4980427;28;20315;-81
2020/12/13 06:31:53;;;;;;;55.90;24.00;;;2.20;93.30;;;;;;4972592;28;20201;-82
2020/12/13 06:34:21;;;;;;;59.60;24.13;;;2.20;93.30;;;;;;4980687;28;20223;-81
2020/12/13 06:36:51;;;;;;;49.87;23.33;;;2.20;93.30;;;;;;4975659;28;20205;-82
2020/12/13 06:39:19;;;;;;;64.23;25.73;;;2.20;93.30;;;;;;4978598;28;20621;-79
2020/12/13 06:41:55;;;;;;;62.77;25.47;;;2.20;93.30;;;;;;4992408;28;20306;-79
2020/12/13 06:44:22;;;;;;;62.50;25.47;;;2.20;93.20;;;;;;4995554;28;20208;-82
2020/12/13 06:46:50;;;;;;;59.83;25.03;;;2.20;93.20;;;;;;5003072;28;20204;-82
2020/12/13 06:49:19;;;;;;;55.60;25.37;;;2.20;93.20;;;;;;4999913;28;20182;-82
2020/12/13 06:51:48;;;;;;;64.77;26.33;;;2.20;93.20;;;;;;4991138;28;20205;-82
2020/12/13 06:54:19;;;;;;;60.90;26.67;;;2.20;93.30;;;;;;4984245;28;20719;-80
2020/12/13 06:56:47;;;;;;;57.70;26.80;;;2.20;93.20;;;;;;5003204;28;20522;-83
2020/12/13 06:59:19;;;;;;;69.10;27.17;;;2.20;93.20;;;;;;4987863;28;20223;-80
2020/12/13 07:01:47;;;;;;;65.73;26.30;;;2.20;93.20;;;;;;4978488;28;20243;-81
2020/12/13 07:04:30;;;;;;;59.97;24.23;;;2.20;93.20;;;;;;4983121;28;20207;-81
2020/12/13 07:07:01;;;;;;;63.40;26.27;;;2.20;93.20;;;;;;4996119;28;20519;-81
2020/12/13 07:09:30;;;;;;;62.13;27.57;;;2.20;93.20;;;;;;4996808;28;20196;-81
2020/12/13 07:11:59;;;;;;;62.03;26.73;;;2.20;93.20;;;;;;4977778;28;20204;-81
2020/12/13 07:14:30;;;;;;;57.90;25.13;;;2.20;93.20;;;;;;4982229;28;20316;-80
2020/12/13 07:17:01;;;;;;;70.37;28.47;;;2.20;93.20;;;;;;4980294;28;20240;-82
2020/12/13 07:19:31;;;;;;;61.63;26.03;;;2.20;93.20;;;;;;4978595;28;20960;-81
2020/12/13 07:22:05;;;;;;;63.00;27.70;;;2.10;93.20;;;;;;4980082;28;20221;-82
2020/12/13 07:24:34;;;;;;;66.80;27.07;;;2.20;93.20;;;;;;4986267;28;20209;-82
2020/12/13 07:27:03;;;;;;;66.40;26.63;;;2.10;93.20;;;;;;4977446;28;20480;-82
2020/12/13 07:29:31;;;;;;;65.03;27.10;;;2.20;93.20;;;;;;4976200;28;20227;-82
2020/12/13 07:32:00;;;;;;;65.13;27.30;;;2.20;93.20;;;;;;4975095;28;20291;-82
2020/12/13 07:34:28;;;;;;;66.47;28.20;;;2.20;93.20;;;;;;4987182;28;20202;-80
2020/12/13 07:36:55;;;;;;;61.33;26.23;;;2.20;93.20;;;;;;4999304;28;20200;-82
2020/12/13 07:39:23;;;;;;;59.53;26.60;;;2.20;93.20;;;;;;4982289;28;20200;-82
2020/12/13 07:41:51;;;;;;;61.33;26.70;;;2.20;93.20;;;;;;4991843;28;20259;-82
2020/12/13 07:44:19;;;;;;;61.63;26.07;;;2.20;93.20;;;;;;4994167;28;20638;-83
2020/12/13 07:46:47;;;;;;;55.90;26.37;;;2.30;93.20;;;;;;4979604;28;20232;-82
2020/12/13 07:49:17;;;;;;;62.67;25.93;;;2.20;93.20;;;;;;4978072;28;20856;-81
2020/12/13 07:51:46;;;;;;;57.93;26.50;;;2.20;93.20;;;;;;4981434;28;20212;-81
2020/12/13 07:54:18;;;;;;;61.43;24.97;;;2.20;93.20;;;;;;4979583;28;20499;-82
2020/12/13 07:56:47;;;;;;;49.37;23.37;;;2.30;93.20;;;;;;4982509;28;20214;-80
2020/12/13 07:59:17;;;;;;;58.57;25.23;;;2.30;93.20;;;;;;4989763;28;20362;-81
2020/12/13 08:01:47;;;;;;;54.27;24.53;;;2.20;93.20;;;;;;4989119;28;20757;-81
2020/12/13 08:04:17;;;;;;;54.27;24.80;;;2.30;93.20;;;;;;4984119;28;20680;-81
2020/12/13 08:06:45;;;;;;;51.43;23.83;;;2.30;93.20;;;;;;4981799;28;20290;-82
2020/12/13 08:09:13;;;;;;;52.37;24.00;;;2.30;93.20;;;;;;4984352;28;20236;-82
2020/12/13 08:11:42;;;;;;;58.20;24.33;;;2.30;93.20;;;;;;4992260;28;20225;-82
2020/12/13 08:14:09;;;;;;;50.60;24.00;;;2.30;93.20;;;;;;5003434;28;20203;-81
2020/12/13 08:16:38;;;;;;;51.70;23.20;;;2.30;93.20;;;;;;4987319;28;20206;-82
2020/12/13 08:19:13;;;;;;;51.43;24.03;;;2.30;93.20;;;;;;4994789;28;20222;-83
2020/12/13 08:21:54;;;;;;;51.67;23.77;;;2.30;93.20;;;;;;4989144;28;20598;-83
2020/12/13 08:24:21;;;;;;;53.67;22.63;;;2.20;93.20;;;;;;4984669;28;20208;-82
2020/12/13 08:26:51;;;;;;;46.27;22.57;;;2.20;93.20;;;;;;4984382;28;20204;-81
2020/12/13 08:29:20;;;;;;;50.87;24.00;;;2.20;93.30;;;;;;4982490;28;20212;-82
2020/12/13 08:31:50;;;;;;;51.70;23.80;;;2.20;93.30;;;;;;4991257;28;20208;-82
2020/12/13 08:34:24;;;;;;;49.57;22.60;;;2.20;93.30;;;;;;5000937;28;20196;-82
2020/12/13 08:36:54;;;;;;;50.23;23.13;;;2.20;93.30;;;;;;5004448;28;20212;-82
2020/12/13 08:39:29;;;;;;;48.23;23.10;;;2.20;93.30;;;;;;5002582;28;20197;-81
2020/12/13 08:41:57;;;;;;;52.97;23.77;;;2.20;93.30;;;;;;5012011;28;20264;-82
2020/12/13 08:44:30;;;;;;;49.70;23.17;;;2.20;93.30;;;;;;5003446;28;20203;-81
2020/12/13 08:47:01;;;;;;;55.73;23.77;;;2.20;93.30;;;;;;5004401;28;20208;-81
2020/12/13 08:49:32;;;;;;;51.80;23.80;;;2.20;93.30;;;;;;5009833;28;20272;-80
2020/12/13 08:52:16;;;;;;;50.43;22.10;;;2.30;93.30;;;;;;5007424;28;20185;-82
2020/12/13 08:55:04;;;;;;;48.27;21.77;;;2.30;93.30;;;;;;5009166;28;20507;-81
2020/12/13 08:57:33;;;;;;;53.97;22.73;;;2.40;93.30;;;;;;5004884;28;20196;-83
2020/12/13 09:00:05;;;;;;;47.77;22.23;;;2.30;93.30;;;;;;4989567;28;20511;-81
2020/12/13 09:02:56;;;;;;;48.77;21.73;;;2.30;93.30;;;;;;4998292;28;20263;-81
2020/12/13 09:05:28;;;;;;;46.23;21.90;;;2.30;93.30;;;;;;5006711;28;20204;-81
2020/12/13 09:07:58;;;;;;;50.70;23.93;;;2.30;93.30;;;;;;5004712;28;20231;-80
2020/12/13 09:10:31;;;;;;;50.83;23.20;;;2.30;93.20;;;;;;5007592;28;20514;-81
2020/12/13 09:13:06;;;;;;;46.10;22.23;;;2.30;93.20;;;;;;5003092;28;20212;-81
2020/12/13 09:15:34;;;;;;;46.87;22.17;;;2.30;93.20;;;;;;5001069;28;20398;-81
2020/12/13 09:18:03;;;;;;;43.07;21.87;;;2.30;93.20;;;;;;4988484;28;20193;-81
2020/12/13 09:20:32;;;;;;;47.13;22.73;;;2.30;93.20;;;;;;4983338;28;20263;-81
2020/12/13 09:23:12;;;;;;;53.33;23.63;;;2.30;93.20;;;;;;5010179;28;20470;-81
2020/12/13 09:25:44;;;;;;;44.50;21.87;;;2.30;93.20;;;;;;5011135;28;20280;-80
2020/12/13 09:28:14;;;;;;;50.23;24.50;;;2.30;93.10;;;;;;5002768;28;20244;-81
2020/12/13 09:30:43;;;;;;;52.47;24.90;;;2.30;93.10;;;;;;5004136;28;20235;-81
2020/12/13 09:33:13;;;;;;;58.00;25.13;;;2.30;93.10;;;;;;4988958;28;20666;-80
2020/12/13 09:35:44;;;;;;;49.97;23.60;;;2.30;93.00;;;;;;4987091;28;20218;-82
2020/12/13 09:38:11;;;;;;;50.30;25.03;;;2.30;93.00;;;;;;4983528;28;20208;-80
2020/12/13 09:40:39;;;;;;;50.57;24.13;;;2.30;92.90;;;;;;5009477;28;20215;-82
2020/12/13 09:43:07;;;;;;;50.43;25.20;;;2.30;92.90;;;;;;5005027;28;20213;-81
2020/12/13 09:45:36;;;;;;;53.83;25.70;;;2.30;92.80;;;;;;5005336;28;20208;-82
2020/12/13 09:48:04;;;;;;;48.10;24.43;;;2.30;92.80;;;;;;4993301;28;20295;-82
2020/12/13 09:50:32;;;;;;;54.60;25.67;;;2.40;92.90;;;;;;4989073;28;20213;-81
2020/12/13 09:53:00;;;;;;;56.87;25.07;;;2.20;92.80;;;;;;4991253;28;20216;-82
2020/12/13 09:55:28;;;;;;;53.37;25.93;;;2.40;92.80;;;;;;4990671;28;20220;-82
2020/12/13 09:57:55;;;;;;;48.67;25.27;;;2.30;92.80;;;;;;4992782;28;20202;-81
2020/12/13 10:00:23;;;;;;;51.47;25.80;;;2.40;92.90;;;;;;4997367;28;20228;-80
2020/12/13 10:02:52;;;;;;;49.20;24.40;;;2.40;92.90;;;;;;4996298;28;20336;-81
2020/12/13 10:05:24;;;;;;;54.10;25.73;;;2.40;92.90;;;;;;5001811;28;20234;-81
2020/12/13 10:10:39;;;;;;;53.90;25.20;;;2.40;92.80;;;;;;4989823;28;20201;-82
2020/12/13 10:13:06;;;;;;;56.57;26.17;;;2.40;92.70;;;;;;4988968;28;20209;-85
2020/12/13 10:15:34;;;;;;;54.43;26.10;;;2.30;92.70;;;;;;4985765;28;20619;-81
2020/12/13 10:18:01;;;;;;;56.30;25.43;;;2.40;92.70;;;;;;4999643;28;20227;-81
2020/12/13 10:20:29;;;;;;;56.00;26.07;;;2.40;92.70;;;;;;4991270;28;20778;-81
2020/12/13 10:22:57;;;;;;;50.40;25.63;;;2.40;92.70;;;;;;4991551;28;20238;-82
2020/12/13 10:25:25;;;;;;;57.23;26.60;;;2.40;92.70;;;;;;4988643;28;20531;-82
2020/12/13 10:27:52;;;;;;;49.60;24.90;;;2.40;92.70;;;;;;4991466;28;20209;-82
2020/12/13 10:30:20;;;;;;;53.80;25.80;;;2.40;92.70;;;;;;4988613;28;20228;-82
2020/12/13 10:32:47;;;;;;;50.20;26.03;;;2.60;92.70;;;;;;4982235;28;20201;-82
2020/12/13 10:35:15;;;;;;;50.60;25.53;;;2.40;92.70;;;;;;4986256;28;20240;-80
2020/12/13 10:37:43;;;;;;;54.23;26.70;;;2.40;92.60;;;;;;4997853;28;20269;-82
2020/12/13 10:40:12;;;;;;;50.00;25.23;;;2.40;92.60;;;;;;4982511;28;20509;-82
2020/12/13 10:42:39;;;;;;;52.80;25.77;;;2.40;92.60;;;;;;4986243;28;20259;-83
2020/12/13 10:45:07;;;;;;;53.13;25.23;;;2.40;92.50;;;;;;4991684;28;20815;-81
2020/12/13 10:47:34;;;;;;;46.70;24.43;;;2.40;92.50;;;;;;4988350;28;20206;-84
2020/12/13 10:50:02;;;;;;;48.03;24.40;;;2.40;92.40;;;;;;4992766;28;20212;-82
2020/12/13 10:52:30;;;;;;;51.80;25.50;;;2.40;92.40;;;;;;4984628;28;20201;-82
2020/12/13 10:54:58;;;;;;;51.30;25.00;;;2.40;92.40;;;;;;4990460;28;20220;-81
2020/12/13 10:57:28;;;;;;;43.60;23.87;;;2.40;92.30;;;;;;4986630;28;20210;-82
2020/12/13 10:59:55;;;;;;;52.00;24.23;;;2.40;92.20;;;;;;4995949;28;20205;-82
2020/12/13 11:02:23;;;;;;;51.23;24.63;;;2.40;92.30;;;;;;4982405;28;20205;-81
2020/12/13 11:04:51;;;;;;;49.47;24.50;;;2.40;92.30;;;;;;4983697;28;20380;-82
2020/12/13 11:07:18;;;;;;;48.90;23.63;;;2.40;92.20;;;;;;5006268;28;20192;-82
2020/12/13 11:09:47;;;;;;;51.90;26.17;;;2.40;92.10;;;;;;5006086;28;20263;-81
2020/12/13 11:12:15;;;;;;;47.17;24.17;;;2.40;92.00;;;;;;5047848;23;20285;-82
2020/12/13 11:14:44;;;;;;;49.83;25.17;;;2.50;92.10;;;;;;4958759;28;20261;-83
2020/12/13 11:17:11;;;;;;;46.80;23.97;;;2.40;92.10;;;;;;4960532;28;20199;-81
2020/12/13 11:19:40;;;;;;;47.17;24.60;;;2.40;92.10;;;;;;4972227;28;20447;-82
2020/12/13 11:22:09;;;;;;;47.67;24.97;;;2.30;92.20;;;;;;4963998;28;20646;-82
2020/12/13 11:24:37;;;;;;;56.03;26.23;;;2.40;92.20;;;;;;4952694;28;20212;-80
2020/12/13 11:27:07;;;;;;;49.60;24.80;;;2.30;92.20;;;;;;4970241;28;20209;-81
2020/12/13 11:29:34;;;;;;;49.97;24.70;;;2.30;92.30;;;;;;4960529;28;20645;-81
2020/12/13 11:32:05;;;;;;;50.83;25.27;;;2.30;92.30;;;;;;4957327;28;20340;-82
2020/12/13 11:34:36;;;;;;;50.37;25.30;;;2.30;92.20;;;;;;4963638;28;20517;-81
2020/12/13 11:37:05;;;;;;;53.23;26.00;;;2.30;92.30;;;;;;4944947;28;20469;-81
2020/12/13 11:39:35;;;;;;;46.80;25.07;;;2.30;92.30;;;;;;4946454;28;20202;-82
2020/12/13 11:42:04;;;;;;;51.50;25.60;;;2.30;92.20;;;;;;4933211;28;20625;-81
2020/12/13 11:44:32;;;;;;;48.83;24.97;;;2.30;92.10;;;;;;4939948;28;20313;-82
2020/12/13 11:47:07;;;;;;;55.43;27.00;;;2.30;92.10;;;;;;4951085;28;20202;-81
2020/12/13 11:49:36;;;;;;;52.53;25.20;;;2.30;92.10;;;;;;4936624;28;20929;-81
2020/12/13 11:52:06;;;;;;;48.00;23.63;;;2.40;92.10;;;;;;4951059;28;20948;-81
2020/12/13 11:54:36;;;;;;;50.17;24.47;;;2.30;92.00;;;;;;4955642;28;20195;-82
2020/12/13 11:57:04;;;;;;;54.20;25.83;;;2.30;91.90;;;;;;4939928;28;20212;-82
2020/12/13 11:59:32;;;;;;;50.47;26.43;;;2.30;92.00;;;;;;4937230;28;20463;-82
2020/12/13 12:02:00;;;;;;;50.80;24.83;;;2.30;92.10;;;;;;4953267;28;20272;-80
2020/12/13 12:04:30;;;;;;;47.63;25.43;;;2.50;92.10;;;;;;4936819;29;20253;-82
2020/12/13 12:06:57;;;;;;;48.97;25.60;;;2.40;92.10;;;;;;4945486;28;20201;-83
2020/12/13 12:09:25;;;;;;;50.63;26.77;;;2.30;92.00;;;;;;4935517;28;20199;-83
2020/12/13 12:11:53;;;;;;;49.80;25.43;;;2.30;92.00;;;;;;4936802;28;20587;-82
2020/12/13 12:14:21;;;;;;;54.67;25.60;;;2.30;92.10;;;;;;4949190;28;20207;-83
2020/12/13 12:16:49;;;;;;;57.33;27.10;;;2.30;92.20;;;;;;4940027;28;20191;-83
2020/12/13 12:19:17;;;;;;;53.30;26.97;;;2.30;92.20;;;;;;4939634;29;20368;-82
2020/12/13 12:21:51;;;;;;;52.93;25.13;;;2.30;92.00;;;;;;4944884;28;20202;-82
2020/12/13 12:24:22;;;;;;;50.00;25.97;;;2.30;92.10;;;;;;4938245;28;20237;-82
2020/12/13 12:26:51;;;;;;;50.77;27.37;;;2.30;92.10;;;;;;4946060;28;20243;-82
2020/12/13 12:29:20;;;;;;;53.70;27.47;;;2.30;92.10;;;;;;4955077;28;20212;-82
2020/12/13 12:31:48;;;;;;;54.23;26.90;;;2.30;92.00;;;;;;4929475;29;20285;-83
2020/12/13 12:34:16;;;;;;;47.73;23.87;;;2.20;92.00;;;;;;4951633;28;20198;-82
2020/12/13 12:36:44;;;;;;;51.80;26.37;;;2.20;92.00;;;;;;4955713;28;20433;-80
2020/12/13 12:39:13;;;;;;;51.43;25.37;;;2.20;92.10;;;;;;4951601;28;20480;-82
2020/12/13 12:41:44;;;;;;;52.73;26.43;;;2.10;92.10;;;;;;4960216;28;20696;-82
2020/12/13 12:44:12;;;;;;;46.10;24.93;;;2.20;92.20;;;;;;4934624;29;20222;-82
2020/12/13 12:46:39;;;;;;;53.33;26.37;;;2.20;92.20;;;;;;4940711;29;20212;-82
2020/12/13 12:49:07;;;;;;;52.17;24.50;;;2.10;92.20;;;;;;4952235;28;20311;-81